Time;durP1;ratioP1;P1;durP2;ratioP2;P2;SDS_P1;SDS_P2;PMS_P1;PMS_P2;Temp;Humidity;BMP_temperature;BMP_pressure;BME280_temperature;BME280_humidity;BME280_pressure;Samples;Min_cycle;Max_cycle;Signal;HPM_P1;HPM_P2
2023/02/15 00:02:24;;;;;;;45.33;27.38;;;;;;;3.10;100.00;102571.16;5086290;28;20039;-71
2023/02/15 00:04:50;;;;;;;50.40;28.30;;;;;;;3.00;100.00;102566.97;5091404;28;20044;-71
2023/02/15 00:07:17;;;;;;;53.92;28.88;;;;;;;2.98;100.00;102563.31;5090017;28;20036;-71
2023/02/15 00:09:44;;;;;;;51.47;27.98;;;;;;;2.96;100.00;102554.50;5087861;28;20089;-69
2023/02/15 00:12:10;;;;;;;46.88;26.63;;;;;;;2.99;100.00;102557.34;5087785;28;20345;-71
2023/02/15 00:14:35;;;;;;;52.35;28.70;;;;;;;2.95;100.00;102554.41;5083548;28;20031;-72
2023/02/15 00:17:01;;;;;;;53.63;27.35;;;;;;;3.00;100.00;102551.34;5091650;28;20032;-72
2023/02/15 00:19:26;;;;;;;58.10;28.65;;;;;;;2.97;100.00;102545.94;5086267;28;20028;-71
2023/02/15 00:21:51;;;;;;;47.75;27.25;;;;;;;2.98;100.00;102542.50;5087855;28;20026;-70
2023/02/15 00:24:19;;;;;;;50.92;27.80;;;;;;;2.94;100.00;102540.47;5091429;28;20032;-72
2023/02/15 00:26:45;;;;;;;58.60;31.30;;;;;;;2.95;100.00;102541.41;5089044;28;20024;-71
2023/02/15 00:29:13;;;;;;;53.60;29.92;;;;;;;2.91;100.00;102542.84;5092902;28;20028;-70
2023/02/15 00:31:39;;;;;;;60.15;29.17;;;;;;;2.92;100.00;102542.06;5085312;28;20025;-71
2023/02/15 00:34:12;;;;;;;52.10;27.92;;;;;;;2.89;100.00;102539.25;5090528;28;20126;-70
2023/02/15 00:36:38;;;;;;;55.97;28.67;;;;;;;2.92;100.00;102535.97;5091195;28;20032;-70
2023/02/15 00:39:04;;;;;;;51.03;27.63;;;;;;;2.89;100.00;102535.72;5081484;28;20028;-70
2023/02/15 00:41:30;;;;;;;54.60;29.02;;;;;;;2.89;100.00;102531.44;5093389;28;20055;-70
2023/02/15 00:43:56;;;;;;;50.08;27.77;;;;;;;2.86;100.00;102536.41;5089230;28;20028;-70
2023/02/15 00:46:21;;;;;;;49.78;27.65;;;;;;;2.83;100.00;102529.28;5093612;28;20028;-70
2023/02/15 00:48:46;;;;;;;42.85;26.55;;;;;;;2.78;100.00;102537.53;5091190;28;20036;-71
2023/02/15 00:51:12;;;;;;;45.08;26.52;;;;;;;2.81;100.00;102535.16;5084736;28;20085;-71
2023/02/15 00:53:37;;;;;;;53.20;28.33;;;;;;;2.74;100.00;102540.69;5088082;28;20028;-70
2023/02/15 00:56:02;;;;;;;53.45;27.58;;;;;;;2.71;100.00;102541.34;5091814;28;20028;-70
2023/02/15 00:58:28;;;;;;;53.03;27.83;;;;;;;2.67;100.00;102536.69;5078017;28;20393;-71
2023/02/15 01:00:53;;;;;;;47.85;27.75;;;;;;;2.71;100.00;102530.94;5085843;28;20058;-71
2023/02/15 01:03:20;;;;;;;51.55;27.55;;;;;;;2.73;100.00;102523.25;5083763;28;20028;-70
2023/02/15 01:05:47;;;;;;;53.40;29.27;;;;;;;2.70;100.00;102519.66;5091922;28;20039;-71
2023/02/15 01:08:13;;;;;;;56.88;29.67;;;;;;;2.74;100.00;102522.47;5090613;28;20093;-70
2023/02/15 01:10:39;;;;;;;50.50;28.40;;;;;;;2.75;100.00;102524.31;5091093;28;20107;-71
2023/02/15 01:13:05;;;;;;;53.22;27.27;;;;;;;2.75;100.00;102517.38;5086351;28;20020;-71
2023/02/15 01:15:30;;;;;;;48.00;27.20;;;;;;;2.75;100.00;102516.50;5092543;28;20032;-71
2023/02/15 01:17:55;;;;;;;55.80;28.20;;;;;;;2.71;100.00;102520.56;5091809;28;20020;-71
2023/02/15 01:20:24;;;;;;;65.80;31.20;;;;;;;2.80;100.00;102508.25;5083282;28;20042;-71
2023/02/15 01:22:51;;;;;;;60.78;29.98;;;;;;;2.82;100.00;102509.28;5070837;28;20029;-72
2023/02/15 01:25:17;;;;;;;62.88;31.85;;;;;;;2.89;100.00;102510.66;5078509;28;20486;-71
2023/02/15 01:27:43;;;;;;;67.57;31.77;;;;;;;2.96;100.00;102494.72;5089192;28;20403;-71
2023/02/15 01:30:09;;;;;;;61.15;30.70;;;;;;;3.03;100.00;102502.16;5090826;28;20038;-71
2023/02/15 01:32:35;;;;;;;57.67;30.90;;;;;;;2.91;100.00;102503.84;5086733;28;20106;-70
2023/02/15 01:35:00;;;;;;;63.83;30.33;;;;;;;2.80;100.00;102499.56;5085370;28;20102;-70
2023/02/15 01:37:25;;;;;;;65.43;28.73;;;;;;;2.72;100.00;102493.78;5084674;28;20386;-70
2023/02/15 01:39:51;;;;;;;57.22;30.20;;;;;;;2.66;100.00;102491.63;5080944;28;20478;-70
2023/02/15 01:42:22;;;;;;;60.85;31.35;;;;;;;2.65;100.00;102489.81;5082917;28;20024;-72
2023/02/15 01:44:48;;;;;;;55.42;29.88;;;;;;;2.65;100.00;102491.50;5085790;28;20097;-71
2023/02/15 01:47:22;;;;;;;59.90;31.42;;;;;;;2.60;100.00;102482.47;5075353;28;20070;-71
2023/02/15 01:50:01;;;;;;;59.42;30.60;;;;;;;2.59;100.00;102480.63;5075562;28;20453;-70
2023/02/15 01:52:28;;;;;;;57.20;30.27;;;;;;;2.51;100.00;102475.78;5087200;28;20026;-70
2023/02/15 01:54:54;;;;;;;60.28;30.58;;;;;;;2.50;100.00;102478.28;5082132;28;20460;-71
2023/02/15 01:57:23;;;;;;;48.25;27.70;;;;;;;2.40;100.00;102486.13;5078271;28;20040;-69
2023/02/15 01:59:56;;;;;;;59.30;30.70;;;;;;;2.34;100.00;102482.28;5078676;28;20024;-71
2023/02/15 02:02:24;;;;;;;57.42;29.02;;;;;;;2.32;100.00;102489.06;5086067;28;20044;-71
2023/02/15 02:04:56;;;;;;;54.83;28.83;;;;;;;2.22;100.00;102485.66;5079506;28;20056;-71
2023/02/15 02:07:26;;;;;;;57.72;28.95;;;;;;;2.24;100.00;102484.97;5086267;28;20391;-71
2023/02/15 02:09:52;;;;;;;57.72;28.15;;;;;;;2.21;100.00;102487.31;5082519;28;20086;-71
2023/02/15 02:12:18;;;;;;;55.80;28.95;;;;;;;2.16;100.00;102483.47;5088127;28;20115;-72
2023/02/15 02:14:45;;;;;;;57.70;28.88;;;;;;;2.16;100.00;102475.69;5077783;28;20024;-71
2023/02/15 02:17:49;;;;;;;58.10;28.88;;;;;;;2.14;100.00;102472.06;5083124;28;20047;-71
2023/02/15 02:20:39;;;;;;;50.03;28.57;;;;;;;2.10;100.00;102470.91;5090733;28;20028;-71
2023/02/15 02:23:17;;;;;;;58.50;28.67;;;;;;;2.07;100.00;102462.88;5084087;28;20294;-70
2023/02/15 02:26:04;;;;;;;55.38;27.92;;;;;;;2.02;100.00;102462.53;5090118;28;20040;-70
2023/02/15 02:28:59;;;;;;;51.65;27.52;;;;;;;1.99;100.00;102461.38;5084830;28;20114;-70
2023/02/15 02:31:52;;;;;;;47.95;25.98;;;;;;;1.95;100.00;102456.75;5086560;28;20074;-71
2023/02/15 02:34:37;;;;;;;57.05;28.27;;;;;;;1.95;100.00;102449.84;5090207;28;20035;-71
2023/02/15 02:37:17;;;;;;;53.17;28.83;;;;;;;1.93;100.00;102445.34;5077734;28;20073;-70
2023/02/15 02:40:12;;;;;;;57.28;28.70;;;;;;;1.94;100.00;102445.47;5080766;28;20392;-70
2023/02/15 02:42:38;;;;;;;53.53;26.52;;;;;;;1.91;100.00;102440.03;5085154;28;20023;-71
2023/02/15 02:45:07;;;;;;;63.67;29.55;;;;;;;1.93;100.00;102438.47;5090959;28;20433;-71
2023/02/15 02:47:46;;;;;;;51.75;26.60;;;;;;;1.89;100.00;102436.41;5093018;28;20102;-71
2023/02/15 02:50:21;;;;;;;53.08;27.77;;;;;;;1.89;100.00;102428.63;5090759;28;20034;-70
2023/02/15 02:52:49;;;;;;;51.70;27.60;;;;;;;1.85;100.00;102431.78;5076205;28;20036;-71
2023/02/15 02:55:31;;;;;;;48.67;27.33;;;;;;;1.86;100.00;102433.59;5090536;28;20028;-71
2023/02/15 02:58:15;;;;;;;53.15;28.17;;;;;;;1.85;100.00;102430.06;5088452;28;20498;-70
2023/02/15 03:00:46;;;;;;;53.28;26.67;;;;;;;1.82;100.00;102431.53;5089073;28;20028;-70
2023/02/15 03:03:36;;;;;;;53.10;27.38;;;;;;;1.77;100.00;102423.38;5093446;28;20031;-71
2023/02/15 03:06:09;;;;;;;47.38;25.20;;;;;;;1.69;100.00;102425.38;5091664;28;20084;-69
2023/02/15 03:08:45;;;;;;;50.07;24.53;;;;;;;1.69;100.00;102420.19;5085809;28;20357;-71
2023/02/15 03:11:11;;;;;;;52.10;27.25;;;;;;;1.63;100.00;102414.53;5093509;28;20282;-70
2023/02/15 03:13:37;;;;;;;49.42;26.10;;;;;;;1.61;100.00;102410.91;5085821;28;20028;-70
2023/02/15 03:19:06;;;;;;;51.42;27.42;;;;;;;1.57;100.00;102410.56;5094738;28;20093;-73
2023/02/15 03:21:38;;;;;;;49.95;26.55;;;;;;;1.51;100.00;102398.00;5088539;28;20077;-70
2023/02/15 03:24:10;;;;;;;53.47;26.77;;;;;;;1.58;100.00;102407.19;5088342;28;20424;-70
2023/02/15 03:26:36;;;;;;;47.30;26.13;;;;;;;1.52;100.00;102405.91;5091522;28;20028;-72
2023/02/15 03:29:03;;;;;;;51.78;27.33;;;;;;;1.49;100.00;102405.69;5091950;28;20067;-69
2023/02/15 03:31:33;;;;;;;52.20;27.25;;;;;;;1.54;100.00;102398.25;5092914;28;20028;-71
2023/02/15 03:34:03;;;;;;;48.97;25.20;;;;;;;1.52;100.00;102399.81;5089917;28;20031;-71
2023/02/15 03:36:46;;;;;;;49.97;25.67;;;;;;;1.49;100.00;102395.31;5089579;28;20369;-70
2023/02/15 03:39:20;;;;;;;61.28;26.17;;;;;;;1.47;100.00;102390.78;5092048;28;20024;-71
2023/02/15 03:42:12;;;;;;;47.00;24.63;;;;;;;1.41;100.00;102395.47;5092477;28;20043;-70
2023/02/15 03:44:59;;;;;;;47.65;24.38;;;;;;;1.37;100.00;102393.41;5081389;28;20399;-70
2023/02/15 03:47:33;;;;;;;44.03;24.83;;;;;;;1.29;100.00;102385.94;5086561;28;20070;-70
2023/02/15 03:50:04;;;;;;;;;;;;;;;1.30;100.00;102379.06;5087318;28;20467;-70
2023/02/15 03:52:49;;;;;;;47.72;24.10;;;;;;;1.33;100.00;102384.50;5088000;28;19923;-70
2023/02/15 03:55:14;;;;;;;45.50;23.02;;;;;;;1.32;100.00;102375.81;5081729;28;20032;-70
2023/02/15 04:03:14;;;;;;;52.10;25.73;;;;;;;1.29;100.00;102375.56;5090558;28;20041;-71
2023/02/15 04:05:41;;;;;;;49.70;25.83;;;;;;;1.30;100.00;102361.81;5082821;28;20554;-69
2023/02/15 04:08:06;;;;;;;58.28;29.13;;;;;;;1.40;100.00;102362.53;5094227;28;20036;-70
2023/02/15 04:13:15;;;;;;;62.22;29.58;;;;;;;1.54;100.00;102351.53;5088863;28;20089;-70
2023/02/15 04:26:36;;;;;;;58.33;30.52;;;;;;;1.66;100.00;102351.59;5091397;28;20171;-70
2023/02/15 04:29:02;;;;;;;63.35;29.80;;;;;;;1.61;100.00;102338.25;5089366;28;20024;-70
2023/02/15 04:31:27;;;;;;;67.78;29.17;;;;;;;1.61;100.00;102346.03;5092233;28;20453;-70
2023/02/15 04:33:52;;;;;;;59.80;30.00;;;;;;;1.61;100.00;102345.13;5078563;28;20384;-72
2023/02/15 04:36:18;;;;;;;57.88;30.25;;;;;;;1.60;100.00;102341.66;5089353;28;20157;-71
2023/02/15 04:38:43;;;;;;;65.72;32.10;;;;;;;1.70;100.00;102348.44;5093840;28;20725;-72
2023/02/15 04:41:10;;;;;;;68.15;33.28;;;;;;;1.67;100.00;102349.13;5084696;28;20513;-71
2023/02/15 04:43:35;;;;;;;81.18;34.28;;;;;;;1.71;100.00;102346.75;5089761;28;20051;-72
2023/02/15 04:46:01;;;;;;;68.30;33.13;;;;;;;1.80;100.00;102350.94;5092299;28;20051;-70
2023/02/15 04:48:26;;;;;;;68.68;31.85;;;;;;;1.87;100.00;102349.72;5090030;28;20122;-70
2023/02/15 04:50:51;;;;;;;73.07;32.33;;;;;;;1.90;100.00;102344.78;5090516;28;20030;-71
2023/02/15 04:53:18;;;;;;;70.72;34.60;;;;;;;2.00;100.00;102334.28;5093204;28;20028;-70
2023/02/15 04:55:43;;;;;;;75.50;35.10;;;;;;;2.07;100.00;102335.66;5084061;28;20034;-70
2023/02/15 04:58:08;;;;;;;77.10;34.22;;;;;;;2.11;100.00;102337.69;5090491;28;20464;-70
2023/02/15 05:00:34;;;;;;;85.38;34.58;;;;;;;2.16;100.00;102336.34;5090480;28;20036;-72
2023/02/15 05:02:59;;;;;;;74.75;34.00;;;;;;;2.20;100.00;102337.50;5092680;28;20026;-71
2023/02/15 05:05:25;;;;;;;74.65;33.45;;;;;;;2.24;100.00;102342.13;5085003;28;20040;-72
2023/02/15 05:07:50;;;;;;;78.40;36.45;;;;;;;2.23;100.00;102336.81;5088616;28;20107;-70
2023/02/15 05:10:15;;;;;;;87.97;36.25;;;;;;;2.23;100.00;102335.13;5086088;28;20058;-71
2023/02/15 05:12:41;;;;;;;73.72;33.83;;;;;;;2.20;100.00;102332.31;5073332;28;20089;-72
2023/02/15 05:15:06;;;;;;;76.10;33.03;;;;;;;2.14;100.00;102327.56;5091016;28;20439;-70
2023/02/15 05:17:32;;;;;;;71.47;34.03;;;;;;;2.10;100.00;102328.09;5090573;28;20023;-71
2023/02/15 05:19:57;;;;;;;72.43;34.75;;;;;;;2.07;100.00;102325.28;5083871;28;20361;-71
2023/02/15 05:22:22;;;;;;;75.47;34.67;;;;;;;2.07;100.00;102321.78;5076544;28;20372;-70
2023/02/15 05:30:16;;;;;;;74.72;32.70;;;;;;;1.97;100.00;102318.50;5085703;28;20136;-71
2023/02/15 05:32:41;;;;;;;67.00;31.83;;;;;;;1.82;100.00;102317.34;5086449;28;20044;-71
2023/02/15 05:35:07;;;;;;;68.72;30.67;;;;;;;1.72;100.00;102325.22;5090811;28;20024;-70
2023/02/15 05:37:33;;;;;;;71.13;33.80;;;;;;;1.63;100.00;102309.84;5081170;28;20035;-72
2023/02/15 05:39:58;;;;;;;72.43;32.90;;;;;;;1.60;100.00;102310.53;5088383;28;20464;-71
2023/02/15 05:42:23;;;;;;;75.25;34.53;;;;;;;1.59;100.00;102305.22;5087528;28;20035;-71
2023/02/15 05:44:49;;;;;;;70.50;33.45;;;;;;;1.64;100.00;102304.78;5089540;28;20426;-71
2023/02/15 05:47:14;;;;;;;72.63;34.67;;;;;;;1.71;100.00;102298.38;5087976;28;20119;-71
2023/02/15 05:49:39;;;;;;;79.40;36.50;;;;;;;1.76;100.00;102296.09;5083278;28;20107;-71
2023/02/15 05:52:05;;;;;;;83.78;37.15;;;;;;;1.79;100.00;102297.25;5089357;28;20154;-70
2023/02/15 05:54:30;;;;;;;78.88;35.97;;;;;;;1.85;100.00;102296.81;5089434;28;20020;-72
2023/02/15 05:56:55;;;;;;;72.45;35.50;;;;;;;1.85;100.00;102302.00;5084247;28;20085;-73
2023/02/15 05:59:21;;;;;;;79.88;36.60;;;;;;;1.87;100.00;102295.22;5086362;28;20463;-71
2023/02/15 06:01:46;;;;;;;75.53;36.05;;;;;;;1.87;100.00;102295.22;5090155;28;20028;-72
2023/02/15 06:04:12;;;;;;;84.60;37.80;;;;;;;1.90;100.00;102299.72;5077152;28;20039;-70
2023/02/15 06:06:38;;;;;;;77.50;36.70;;;;;;;1.89;100.00;102298.84;5089361;28;20036;-70
2023/02/15 06:09:03;;;;;;;87.53;36.20;;;;;;;1.90;100.00;102302.31;5092276;28;20352;-71
2023/02/15 06:11:28;;;;;;;76.75;36.00;;;;;;;1.86;100.00;102296.03;5090437;28;20230;-71
2023/02/15 06:13:54;;;;;;;80.28;35.33;;;;;;;1.82;100.00;102292.28;5090085;28;20031;-71
2023/02/15 06:16:19;;;;;;;72.40;33.30;;;;;;;1.84;100.00;102292.41;5088268;28;20118;-71
2023/02/15 06:18:44;;;;;;;76.68;34.72;;;;;;;1.84;100.00;102289.81;5080080;28;20052;-71
2023/02/15 06:21:10;;;;;;;72.82;35.55;;;;;;;1.85;100.00;102296.81;5089981;28;20035;-72
2023/02/15 06:23:35;;;;;;;81.47;35.72;;;;;;;1.86;100.00;102298.63;5082000;28;20099;-71
2023/02/15 06:26:00;;;;;;;87.40;37.85;;;;;;;1.85;100.00;102307.19;5086571;28;20444;-71
2023/02/15 06:28:26;;;;;;;72.32;34.33;;;;;;;1.85;100.00;102307.19;5091644;28;20059;-71
2023/02/15 06:30:52;;;;;;;75.38;35.20;;;;;;;1.89;100.00;102306.63;5085782;28;20028;-70
2023/02/15 06:33:17;;;;;;;79.25;36.10;;;;;;;1.92;100.00;102303.38;5095516;28;20028;-70
2023/02/15 06:35:43;;;;;;;80.82;35.38;;;;;;;1.95;100.00;102301.00;5089844;28;20034;-70
2023/02/15 06:38:08;;;;;;;82.13;37.47;;;;;;;1.94;100.00;102302.69;5093676;28;20016;-71
2023/02/15 06:40:33;;;;;;;74.22;34.75;;;;;;;1.95;100.00;102304.47;5089144;28;20016;-70
2023/02/15 06:42:59;;;;;;;74.57;36.70;;;;;;;1.94;100.00;102300.09;5092079;28;20074;-70
2023/02/15 06:45:24;;;;;;;78.75;36.17;;;;;;;1.95;100.00;102299.28;5091799;28;20024;-73
2023/02/15 06:47:49;;;;;;;81.38;35.55;;;;;;;1.97;100.00;102292.53;5093485;28;20032;-71
2023/02/15 06:50:15;;;;;;;77.68;35.70;;;;;;;1.98;100.00;102293.44;5093712;28;20032;-69
2023/02/15 06:52:40;;;;;;;80.18;34.08;;;;;;;1.98;100.00;102293.44;5093735;28;20024;-71
2023/02/15 06:55:06;;;;;;;80.85;36.50;;;;;;;1.97;100.00;102291.63;5089233;28;20035;-71
2023/02/15 06:57:32;;;;;;;82.20;35.38;;;;;;;1.95;100.00;102293.19;5087864;28;20387;-70
2023/02/15 06:59:58;;;;;;;89.78;38.05;;;;;;;1.95;100.00;102291.50;5087623;28;20020;-70
2023/02/15 07:02:23;;;;;;;78.47;34.70;;;;;;;1.95;100.00;102283.72;5086264;28;20034;-71
2023/02/15 07:04:49;;;;;;;77.82;35.08;;;;;;;1.95;100.00;102280.22;5093219;28;20450;-72
2023/02/15 07:07:14;;;;;;;78.15;35.95;;;;;;;1.95;100.00;102288.91;5107364;28;20028;-70
2023/02/15 07:09:39;;;;;;;83.00;36.88;;;;;;;1.92;100.00;102283.50;5107059;28;20057;-71
2023/02/15 07:14:50;;;;;;;72.40;33.00;;;;;;;1.95;100.00;102283.72;5091421;28;20131;-71
2023/02/15 07:17:15;;;;;;;84.47;36.42;;;;;;;1.93;100.00;102290.50;5089038;28;20510;-71
2023/02/15 07:19:40;;;;;;;79.40;34.08;;;;;;;1.94;100.00;102287.13;5085013;28;20021;-70
2023/02/15 07:22:06;;;;;;;87.65;36.03;;;;;;;1.94;100.00;102292.31;5085555;28;21877;-71
2023/02/15 07:24:31;;;;;;;76.40;36.03;;;;;;;1.95;100.00;102275.03;5089450;28;20111;-70
2023/02/15 07:27:00;;;;;;;78.85;33.97;;;;;;;1.95;100.00;102273.31;5078956;28;20476;-71
2023/02/15 07:29:25;;;;;;;74.88;37.00;;;;;;;1.98;100.00;102275.25;5088319;28;20027;-70
2023/02/15 07:31:51;;;;;;;68.47;34.47;;;;;;;2.02;100.00;102274.69;5090877;28;20024;-70
2023/02/15 07:34:16;;;;;;;70.60;33.75;;;;;;;2.04;100.00;102267.03;5092672;28;20107;-71
2023/02/15 07:36:44;;;;;;;84.85;36.45;;;;;;;2.05;100.00;102268.81;5095840;28;20032;-71
2023/02/15 07:39:10;;;;;;;80.10;36.05;;;;;;;2.09;100.00;102265.66;5091453;28;20035;-70
2023/02/15 07:41:35;;;;;;;72.55;34.97;;;;;;;2.07;100.00;102262.06;5086291;28;20024;-70
2023/02/15 07:44:00;;;;;;;84.93;35.53;;;;;;;2.04;100.00;102259.25;5092437;28;20034;-70
2023/02/15 07:46:26;;;;;;;81.60;35.00;;;;;;;2.08;100.00;102266.47;5088476;28;20484;-70
2023/02/15 07:48:51;;;;;;;82.55;34.70;;;;;;;2.08;100.00;102266.47;5079877;28;20130;-71
2023/02/15 07:51:16;;;;;;;75.85;35.90;;;;;;;2.12;100.00;102265.91;5087937;28;20103;-70
2023/02/15 07:53:42;;;;;;;84.32;37.10;;;;;;;2.13;100.00;102257.31;5089785;28;20028;-72
2023/02/15 07:56:13;;;;;;;69.40;34.90;;;;;;;2.13;100.00;102267.69;5092722;28;20420;-70
2023/02/15 07:58:50;;;;;;;78.20;35.45;;;;;;;2.13;100.00;102266.03;5092901;28;20019;-71
2023/02/15 08:01:24;;;;;;;79.13;36.05;;;;;;;2.18;100.00;102255.97;5090019;28;20594;-70
2023/02/15 08:03:50;;;;;;;81.50;37.15;;;;;;;2.19;100.00;102256.06;5092442;28;20467;-71
2023/02/15 08:06:15;;;;;;;86.82;37.65;;;;;;;2.24;100.00;102260.69;5092602;28;20052;-71
2023/02/15 08:08:41;;;;;;;71.95;36.72;;;;;;;2.28;100.00;102257.53;5080255;28;20093;-72
2023/02/15 08:11:26;;;;;;;75.43;36.75;;;;;;;2.30;100.00;102250.75;5082119;28;20349;-71
2023/02/15 08:13:54;;;;;;;78.90;34.63;;;;;;;2.32;100.00;102260.47;5076757;28;20516;-72
2023/02/15 08:16:39;;;;;;;85.90;36.40;;;;;;;2.39;100.00;102253.13;5094147;28;20028;-70
2023/02/15 08:19:17;;;;;;;78.22;37.10;;;;;;;2.39;100.00;102248.84;5083062;28;20366;-70
2023/02/15 08:21:45;;;;;;;79.13;37.60;;;;;;;2.45;100.00;102251.88;5090060;28;20467;-70
2023/02/15 08:24:12;;;;;;;78.95;37.50;;;;;;;2.50;100.00;102244.44;5092917;28;20031;-70
2023/02/15 08:26:39;;;;;;;73.38;37.10;;;;;;;2.53;100.00;102245.53;5090846;28;20058;-70
2023/02/15 08:29:06;;;;;;;79.47;38.45;;;;;;;2.58;100.00;102248.47;5091319;28;20035;-71
2023/02/15 08:31:32;;;;;;;76.90;36.08;;;;;;;2.65;100.00;102248.09;5085901;28;20025;-70
2023/02/15 08:33:58;;;;;;;79.45;37.25;;;;;;;2.67;100.00;102248.22;5092495;28;20046;-71
2023/02/15 08:36:26;;;;;;;87.22;38.95;;;;;;;2.74;100.00;102252.16;5071062;28;20020;-70
2023/02/15 08:38:52;;;;;;;76.10;36.58;;;;;;;2.79;100.00;102240.41;5090794;28;20027;-71
2023/02/15 08:41:25;;;;;;;80.95;37.97;;;;;;;2.85;100.00;102243.44;5092001;28;20020;-70
2023/02/15 08:43:53;;;;;;;81.63;38.55;;;;;;;2.89;100.00;102242.88;5086755;28;20020;-70
2023/02/15 08:46:20;;;;;;;80.40;36.85;;;;;;;2.94;100.00;102237.97;5089701;28;20423;-70
2023/02/15 08:48:46;;;;;;;83.30;38.38;;;;;;;3.03;100.00;102249.91;5077865;28;20044;-70
2023/02/15 08:51:15;;;;;;;75.70;37.70;;;;;;;3.11;100.00;102253.06;5093157;28;20047;-70
2023/02/15 08:53:44;;;;;;;73.03;36.00;;;;;;;3.18;100.00;102250.06;5091406;28;20008;-70
2023/02/15 08:56:10;;;;;;;77.20;38.22;;;;;;;3.20;100.00;102252.78;5090083;28;20036;-70
2023/02/15 08:58:36;;;;;;;83.18;36.50;;;;;;;3.31;100.00;102256.13;5090624;28;20032;-70
2023/02/15 09:01:08;;;;;;;77.85;37.70;;;;;;;3.34;100.00;102267.66;5088527;28;20027;-70
2023/02/15 09:03:34;;;;;;;74.32;36.15;;;;;;;3.36;100.00;102262.53;5091789;28;20028;-70
2023/02/15 09:06:01;;;;;;;75.32;36.22;;;;;;;3.50;100.00;102256.59;5080991;28;20044;-69
2023/02/15 09:08:27;;;;;;;75.43;37.15;;;;;;;3.60;100.00;102252.91;5072943;28;20052;-72
2023/02/15 09:10:53;;;;;;;70.20;35.17;;;;;;;3.70;100.00;102255.34;5082974;28;20027;-70
2023/02/15 09:13:20;;;;;;;72.45;36.78;;;;;;;3.80;100.00;102256.88;5089398;28;20133;-70
2023/02/15 09:15:46;;;;;;;73.68;36.38;;;;;;;3.96;100.00;102260.47;5088841;28;20016;-70
2023/02/15 09:18:16;;;;;;;72.10;37.20;;;;;;;4.11;100.00;102258.91;5078587;28;20086;-70
2023/02/15 09:20:44;;;;;;;75.03;36.85;;;;;;;4.33;100.00;102252.50;5071577;28;20119;-69
2023/02/15 09:23:09;;;;;;;75.13;37.72;;;;;;;4.56;100.00;102257.47;5071725;28;20063;-69
2023/02/15 09:25:35;;;;;;;73.75;37.42;;;;;;;4.87;100.00;102253.25;5071280;28;20417;-69
2023/02/15 09:28:00;;;;;;;81.80;38.58;;;;;;;5.21;100.00;102242.34;5078219;28;20491;-70
2023/02/15 09:30:26;;;;;;;70.07;34.72;;;;;;;5.50;100.00;102240.56;5089419;28;20031;-70
2023/02/15 09:32:51;;;;;;;73.80;37.45;;;;;;;5.80;100.00;102243.19;5088275;28;20111;-71
2023/02/15 09:35:17;;;;;;;78.75;37.33;;;;;;;6.00;100.00;102244.41;5082925;28;20051;-70
2023/02/15 09:37:42;;;;;;;68.18;35.85;;;;;;;6.15;100.00;102236.53;5089204;28;20032;-71
2023/02/15 09:40:15;;;;;;;69.60;35.70;;;;;;;6.39;100.00;102239.66;5084794;28;20077;-70
2023/02/15 09:43:11;;;;;;;67.55;36.95;;;;;;;6.58;100.00;102245.06;5081917;28;20036;-71
2023/02/15 09:46:02;;;;;;;67.28;36.03;;;;;;;6.81;100.00;102239.28;5071354;28;20028;-71
2023/02/15 09:48:40;;;;;;;58.80;32.13;;;;;;;7.01;100.00;102236.06;5067657;28;20036;-70
2023/02/15 09:51:24;;;;;;;62.63;34.28;;;;;;;7.21;100.00;102233.59;5086374;28;20020;-70
2023/02/15 09:54:13;;;;;;;66.30;33.97;;;;;;;7.42;100.00;102229.47;5075543;28;20073;-70
2023/02/15 09:56:55;;;;;;;58.45;31.98;;;;;;;7.59;100.00;102238.19;5073981;28;20038;-70
2023/02/15 09:59:39;;;;;;;59.78;32.75;;;;;;;7.83;100.00;102231.53;5070904;28;20499;-70
2023/02/15 10:02:16;;;;;;;66.00;33.72;;;;;;;7.90;100.00;102225.75;5081198;28;20047;-70
2023/02/15 10:05:08;;;;;;;64.53;33.85;;;;;;;7.86;100.00;102232.56;5077018;28;20071;-70
2023/02/15 10:08:01;;;;;;;61.40;33.17;;;;;;;7.91;100.00;102241.56;5088008;28;20084;-70
2023/02/15 10:10:54;;;;;;;60.83;32.38;;;;;;;7.98;100.00;102240.13;5088969;28;20123;-70
2023/02/15 10:13:54;;;;;;;64.25;34.45;;;;;;;8.07;100.00;102237.97;5084571;28;20027;-70
2023/02/15 10:16:35;;;;;;;72.88;34.92;;;;;;;8.13;100.00;102240.00;5067624;28;20036;-70
2023/02/15 10:19:23;;;;;;;63.03;33.72;;;;;;;8.24;100.00;102243.16;5077358;28;20028;-70
2023/02/15 10:22:05;;;;;;;68.15;34.40;;;;;;;8.52;100.00;102247.09;5080316;28;20050;-70
2023/02/15 10:24:46;;;;;;;62.20;33.58;;;;;;;8.75;100.00;102243.88;5090650;28;20077;-70
2023/02/15 10:27:18;;;;;;;59.60;33.08;;;;;;;9.02;100.00;102229.28;5090686;28;20038;-70
2023/02/15 10:29:50;;;;;;;64.38;32.33;;;;;;;9.20;100.00;102221.38;5091011;28;20074;-70
2023/02/15 10:32:24;;;;;;;71.47;33.63;;;;;;;9.37;100.00;102228.28;5092089;28;20127;-70
2023/02/15 10:35:22;;;;;;;58.85;31.25;;;;;;;9.44;100.00;102225.06;5090490;28;20110;-70
2023/02/15 10:38:04;;;;;;;59.47;31.85;;;;;;;9.29;100.00;102216.50;5092275;28;20124;-69
2023/02/15 10:40:37;;;;;;;60.58;32.97;;;;;;;9.42;100.00;102224.09;5092037;28;20020;-69
2023/02/15 10:43:37;;;;;;;57.20;30.52;;;;;;;9.51;100.00;102225.31;5090719;28;20024;-70
2023/02/15 10:46:36;;;;;;;56.15;31.10;;;;;;;9.72;100.00;102218.34;5091834;28;20444;-68
2023/02/15 10:49:46;;;;;;;55.08;29.23;;;;;;;9.93;100.00;102215.72;5071660;28;20108;-70
2023/02/15 10:52:12;;;;;;;51.92;29.80;;;;;;;10.16;100.00;102212.22;5070740;28;20181;-70
2023/02/15 10:54:58;;;;;;;56.55;30.17;;;;;;;10.42;100.00;102203.69;5072873;28;20042;-70
2023/02/15 10:57:33;;;;;;;52.08;30.10;;;;;;;10.61;96.86;102191.25;5073784;28;20035;-70
2023/02/15 11:00:04;;;;;;;57.53;32.05;;;;;;;10.79;93.64;102186.66;5075240;28;20024;-70
2023/02/15 11:02:47;;;;;;;60.80;30.55;;;;;;;11.13;89.38;102190.50;5074470;28;20447;-68
2023/02/15 11:05:21;;;;;;;53.15;29.52;;;;;;;11.32;85.27;102188.53;5078163;28;20106;-69
2023/02/15 11:07:50;;;;;;;53.80;30.23;;;;;;;11.46;82.41;102187.31;5079023;28;20107;-68
2023/02/15 11:10:28;;;;;;;52.83;30.10;;;;;;;11.57;81.22;102192.94;5083347;28;20383;-70
2023/02/15 11:12:56;;;;;;;50.65;28.42;;;;;;;11.83;79.04;102187.66;5085230;28;20121;-72
2023/02/15 11:15:39;;;;;;;52.63;30.40;;;;;;;12.04;75.64;102187.47;5085773;28;20035;-69
2023/02/15 11:18:23;;;;;;;56.38;29.88;;;;;;;11.96;72.88;102181.06;5091337;28;20626;-71
2023/02/15 11:21:04;;;;;;;48.53;27.27;;;;;;;12.41;74.65;102187.72;5089328;28;20020;-69
2023/02/15 11:23:35;;;;;;;49.78;28.35;;;;;;;12.55;67.30;102188.16;5091083;28;20280;-69
2023/02/15 11:26:04;;;;;;;51.80;28.98;;;;;;;12.27;68.03;102184.66;5092522;28;20463;-73
2023/02/15 11:29:11;;;;;;;52.38;27.48;;;;;;;12.20;69.95;102167.75;5087314;28;20086;-70
2023/02/15 11:31:53;;;;;;;50.80;27.88;;;;;;;12.45;72.13;102176.41;5088832;28;20055;-70
2023/02/15 11:34:30;;;;;;;57.83;30.65;;;;;;;12.45;68.36;102182.59;5084436;28;20016;-70
2023/02/15 11:37:01;;;;;;;54.92;28.05;;;;;;;12.25;68.35;102186.34;5091175;28;20038;-72
2023/02/15 11:39:28;;;;;;;56.33;28.77;;;;;;;11.91;71.06;102194.06;5090954;28;20102;-70
2023/02/15 11:41:59;;;;;;;55.17;28.55;;;;;;;12.03;70.47;102190.97;5091647;28;20430;-72
2023/02/15 11:44:32;;;;;;;46.60;27.20;;;;;;;12.16;70.35;102172.91;5084778;28;20065;-70
2023/02/15 11:46:58;;;;;;;49.97;27.85;;;;;;;11.70;70.17;102167.88;5092159;28;20492;-70
2023/02/15 11:49:34;;;;;;;57.33;30.00;;;;;;;11.62;72.87;102154.47;5090625;28;20063;-70
2023/02/15 11:52:12;;;;;;;51.80;29.13;;;;;;;11.60;73.54;102153.50;5090624;28;20403;-70
2023/02/15 11:54:42;;;;;;;50.55;29.80;;;;;;;11.89;75.10;102150.91;5085040;28;20020;-70
2023/02/15 11:57:17;;;;;;;48.95;28.45;;;;;;;12.56;70.99;102150.34;5091501;28;20361;-69